createdAt,value
2022-09-04T00:02:26.989Z,2.70
2022-09-04T00:05:01.581Z,2.87
2022-09-04T00:07:51.916Z,2.70
2022-09-04T00:11:04.389Z,2.47
2022-09-04T00:13:39.321Z,2.40
2022-09-04T00:16:19.979Z,2.77
2022-09-04T00:18:58.072Z,2.23
2022-09-04T00:21:37.182Z,2.93
2022-09-04T00:24:10.469Z,2.40
2022-09-04T00:26:49.027Z,2.90
2022-09-04T00:29:36.293Z,2.37
2022-09-04T00:32:31.388Z,2.77
2022-09-04T00:35:18.443Z,2.50
2022-09-04T00:37:48.169Z,2.77
2022-09-04T00:40:38.368Z,2.97
2022-09-04T00:43:37.499Z,2.37
2022-09-04T00:46:31.142Z,2.47
2022-09-04T00:49:33.338Z,2.93
2022-09-04T00:52:02.760Z,2.50
2022-09-04T00:54:52.443Z,2.50
2022-09-04T00:57:37.806Z,2.83
2022-09-04T01:00:10.967Z,2.87
2022-09-04T01:03:02.159Z,2.87
2022-09-04T01:05:58.424Z,2.67
2022-09-04T01:08:40.305Z,2.80
2022-09-04T01:11:15.176Z,2.90
2022-09-04T01:14:09.946Z,2.90
2022-09-04T01:17:14.465Z,2.67
2022-09-04T01:20:08.359Z,2.87
2022-09-04T01:22:51.501Z,2.80
2022-09-04T01:25:48.671Z,2.90
2022-09-04T01:28:35.849Z,3.00
2022-09-04T01:31:40.053Z,2.80
2022-09-04T01:34:43.829Z,2.77
2022-09-04T01:37:22.675Z,2.70
2022-09-04T01:40:03.009Z,3.20
2022-09-04T01:42:51.655Z,3.03
2022-09-04T01:45:32.259Z,2.80
2022-09-04T01:48:07.891Z,2.90
2022-09-04T01:50:36.946Z,2.73
2022-09-04T01:53:26.431Z,2.90
2022-09-04T01:56:09.583Z,2.90
2022-09-04T01:58:54.214Z,3.13
2022-09-04T02:01:32.839Z,2.83
2022-09-04T02:04:37.533Z,2.60
2022-09-04T02:07:36.112Z,2.80
2022-09-04T02:10:05.880Z,2.57
2022-09-04T02:13:00.777Z,2.60
2022-09-04T02:15:43.006Z,2.90
2022-09-04T02:18:24.982Z,3.13
2022-09-04T02:21:10.461Z,3.40
2022-09-04T02:23:45.493Z,3.10
2022-09-04T02:26:26.955Z,2.80
2022-09-04T02:28:59.954Z,2.97
2022-09-04T02:31:43.959Z,2.60
2022-09-04T02:34:48.388Z,3.00
2022-09-04T02:37:31.501Z,3.50
2022-09-04T02:40:18.967Z,3.10
2022-09-04T02:43:07.656Z,3.10
2022-09-04T02:45:37.023Z,3.07
2022-09-04T02:48:15.849Z,3.20
2022-09-04T02:51:20.677Z,3.20
2022-09-04T02:54:08.214Z,2.87
2022-09-04T02:56:52.061Z,3.10
2022-09-04T02:59:56.124Z,2.80
2022-09-04T03:02:54.410Z,2.97
2022-09-04T03:05:33.280Z,3.17
2022-09-04T03:08:11.118Z,2.70
2022-09-04T03:10:44.275Z,2.93
2022-09-04T03:13:21.995Z,3.20
2022-09-04T03:15:58.392Z,2.80
2022-09-04T03:18:55.679Z,3.00
2022-09-04T03:21:40.741Z,2.67
2022-09-04T03:24:28.433Z,3.33
2022-09-04T03:27:00.572Z,2.90
2022-09-04T03:30:01.221Z,3.47
2022-09-04T03:32:49.437Z,2.93
2022-09-04T03:35:18.971Z,3.10
2022-09-04T03:38:20.281Z,3.00
2022-09-04T03:40:57.459Z,2.63
2022-09-04T03:43:27.087Z,3.33
2022-09-04T03:46:15.815Z,3.00
2022-09-04T03:48:48.941Z,3.40
2022-09-04T03:51:28.677Z,3.37
2022-09-04T03:53:56.215Z,2.90
2022-09-04T03:56:28.992Z,3.00
2022-09-04T03:59:11.504Z,3.10
2022-09-04T04:02:01.196Z,3.00
2022-09-04T04:04:45.348Z,3.10
2022-09-04T04:07:37.455Z,2.80
2022-09-04T04:10:15.529Z,2.97
2022-09-04T04:13:02.218Z,2.90
2022-09-04T04:15:36.924Z,3.10
2022-09-04T04:18:27.266Z,3.30
2022-09-04T04:21:07.905Z,3.10
2022-09-04T04:23:40.909Z,3.13
2022-09-04T04:26:42.561Z,3.33
2022-09-04T04:29:36.961Z,3.70
2022-09-04T04:32:33.442Z,3.53
2022-09-04T04:35:12.548Z,3.70
2022-09-04T04:38:00.791Z,3.40
2022-09-04T04:40:41.281Z,4.10
2022-09-04T04:43:41.066Z,3.87
2022-09-04T04:46:12.349Z,3.67
2022-09-04T04:49:23.399Z,3.87
2022-09-04T04:52:22.894Z,4.30
2022-09-04T04:55:17.990Z,3.97
2022-09-04T04:58:35.301Z,4.07
2022-09-04T05:01:20.914Z,4.07
2022-09-04T05:04:05.689Z,4.00
2022-09-04T05:06:45.149Z,4.10
2022-09-04T05:09:48.652Z,4.40
2022-09-04T05:12:18.279Z,3.30
2022-09-04T05:14:55.335Z,3.23
2022-09-04T05:17:45.645Z,3.37
2022-09-04T05:20:28.675Z,3.40
2022-09-04T05:23:29.015Z,2.97
2022-09-04T05:26:02.637Z,3.10
2022-09-04T05:28:33.348Z,3.30
2022-09-04T05:31:10.187Z,3.03
2022-09-04T05:34:09.504Z,3.27
2022-09-04T05:36:55.427Z,2.90
2022-09-04T05:39:36.005Z,2.93
2022-09-04T05:42:30.221Z,3.50
2022-09-04T05:45:05.569Z,3.60
2022-09-04T05:47:53.404Z,3.17
2022-09-04T05:50:41.978Z,3.10
2022-09-04T05:53:11.499Z,3.30
2022-09-04T05:55:53.365Z,3.70
2022-09-04T05:58:22.707Z,3.27
2022-09-04T06:01:14.276Z,3.40
2022-09-04T06:03:55.348Z,3.30
2022-09-04T06:06:51.611Z,3.73
2022-09-04T06:09:51.121Z,3.70
2022-09-04T06:12:44.368Z,3.90
2022-09-04T06:15:33.565Z,3.60
2022-09-04T06:18:21.727Z,3.37
2022-09-04T06:21:11.860Z,3.50
2022-09-04T06:24:20.463Z,3.73
2022-09-04T06:27:14.515Z,3.60
2022-09-04T06:30:02.635Z,3.47
2022-09-04T06:33:23.531Z,4.10
2022-09-04T06:36:12.491Z,3.67
2022-09-04T06:38:55.641Z,3.60
2022-09-04T06:42:13.688Z,3.33
2022-09-04T06:45:10.764Z,3.60
2022-09-04T06:47:59.058Z,3.77
2022-09-04T06:50:31.230Z,3.93
2022-09-04T06:53:04.196Z,3.80
2022-09-04T06:55:47.372Z,3.27
2022-09-04T06:59:01.447Z,2.80
2022-09-04T07:02:01.101Z,3.00
2022-09-04T07:05:13.000Z,3.90
2022-09-04T07:07:50.006Z,4.33
2022-09-04T07:10:22.351Z,4.30
2022-09-04T07:13:01.129Z,3.67
2022-09-04T07:15:59.200Z,3.90
2022-09-04T07:18:54.314Z,3.80
2022-09-04T07:21:58.837Z,3.70
2022-09-04T07:24:43.136Z,4.20
2022-09-04T07:27:37.621Z,3.90
2022-09-04T07:30:06.105Z,3.60
2022-09-04T07:32:43.429Z,3.57
2022-09-04T07:35:39.054Z,3.97
2022-09-04T07:38:18.921Z,3.57
2022-09-04T07:40:51.778Z,3.80
2022-09-04T07:43:42.514Z,3.40
2022-09-04T07:46:36.730Z,3.37
2022-09-04T07:49:23.785Z,3.30
2022-09-04T07:52:11.083Z,3.57
2022-09-04T07:54:58.828Z,3.57
2022-09-04T07:57:44.042Z,3.60
2022-09-04T08:00:18.060Z,3.10
2022-09-04T08:03:25.733Z,3.00
2022-09-04T08:06:11.594Z,3.70
2022-09-04T08:09:02.969Z,2.67
2022-09-04T08:11:50.763Z,3.03
2022-09-04T08:14:37.572Z,3.00
2022-09-04T08:17:25.778Z,2.70
2022-09-04T08:20:09.433Z,2.53
2022-09-04T08:22:47.772Z,2.57
2022-09-04T08:25:27.705Z,2.97
2022-09-04T08:28:17.346Z,2.80
2022-09-04T08:31:05.209Z,2.90
2022-09-04T08:34:03.188Z,2.70
2022-09-04T08:36:54.179Z,3.40
2022-09-04T08:39:54.174Z,3.03
2022-09-04T08:43:15.820Z,2.80
2022-09-04T08:46:03.309Z,2.93
2022-09-04T08:48:42.012Z,2.47
2022-09-04T08:51:28.485Z,2.37
2022-09-04T08:54:20.793Z,2.60
2022-09-04T08:56:56.512Z,2.53
2022-09-04T08:59:50.842Z,2.67
2022-09-04T09:02:49.819Z,2.40
2022-09-04T09:05:42.741Z,2.63
2022-09-04T09:08:34.169Z,2.70
2022-09-04T09:11:21.499Z,2.77
2022-09-04T09:14:29.039Z,2.87
2022-09-04T09:17:03.003Z,2.90
2022-09-04T09:20:18.075Z,3.00
2022-09-04T09:23:18.074Z,2.40
2022-09-04T09:26:12.944Z,2.73
2022-09-04T09:29:14.121Z,2.70
2022-09-04T09:31:52.756Z,2.70
2022-09-04T09:34:50.925Z,2.60
2022-09-04T09:37:47.931Z,3.80
2022-09-04T09:41:00.372Z,3.10
2022-09-04T09:43:50.806Z,2.60
2022-09-04T09:46:36.595Z,3.00
2022-09-04T09:49:20.990Z,2.50
2022-09-04T09:52:03.834Z,3.10
2022-09-04T09:54:49.074Z,2.70
2022-09-04T09:57:33.450Z,2.70
2022-09-04T10:00:13.747Z,3.10
2022-09-04T10:02:46.009Z,2.43
2022-09-04T10:05:21.310Z,2.50
2022-09-04T10:08:06.615Z,2.27
2022-09-04T10:11:08.443Z,2.90
2022-09-04T10:14:06.232Z,2.50
2022-09-04T10:16:58.158Z,2.60
2022-09-04T10:19:47.680Z,2.87
2022-09-04T10:22:39.090Z,2.87
2022-09-04T10:25:23.975Z,3.07
2022-09-04T10:27:59.733Z,2.93
2022-09-04T10:30:45.767Z,2.90
2022-09-04T10:33:30.054Z,3.40
2022-09-04T10:36:16.158Z,3.20
2022-09-04T10:39:40.660Z,3.17
2022-09-04T10:42:16.308Z,3.40
2022-09-04T10:45:03.911Z,2.87
2022-09-04T10:47:44.868Z,2.97
2022-09-04T10:50:17.031Z,3.00
2022-09-04T10:52:57.730Z,3.60
2022-09-04T10:55:43.824Z,4.33
2022-09-04T10:58:39.579Z,4.13
2022-09-04T11:01:12.386Z,4.40
2022-09-04T11:04:16.309Z,4.63
2022-09-04T11:07:28.620Z,5.07
2022-09-04T11:10:12.198Z,4.80
2022-09-04T11:13:03.393Z,4.60
2022-09-04T11:15:29.939Z,4.03
2022-09-04T11:18:25.472Z,3.80
2022-09-04T11:21:24.924Z,3.40
2022-09-04T11:24:28.850Z,3.73
2022-09-04T11:27:23.379Z,3.50
2022-09-04T11:30:10.048Z,3.80
2022-09-04T11:33:36.410Z,3.87
2022-09-04T11:36:40.252Z,3.90
2022-09-04T11:39:18.247Z,2.90
2022-09-04T11:41:52.292Z,3.70
2022-09-04T11:44:25.159Z,4.23
2022-09-04T11:47:16.726Z,3.30
2022-09-04T11:49:52.466Z,3.80
2022-09-04T11:52:30.097Z,3.43
2022-09-04T11:55:28.897Z,4.07
2022-09-04T11:57:56.059Z,3.63
2022-09-04T12:00:22.791Z,3.60
2022-09-04T12:03:13.650Z,3.37
2022-09-04T12:06:05.651Z,3.20
2022-09-04T12:08:38.065Z,3.70
2022-09-04T12:11:41.997Z,3.87
2022-09-04T12:14:43.893Z,3.20
2022-09-04T12:17:28.482Z,3.27
2022-09-04T12:20:07.751Z,3.03
2022-09-04T12:23:13.279Z,3.10
2022-09-04T12:26:01.812Z,3.33
2022-09-04T12:29:10.947Z,3.47
2022-09-04T12:31:44.064Z,2.90
2022-09-04T12:34:34.955Z,3.60
2022-09-04T12:37:19.823Z,3.50
2022-09-04T12:40:04.109Z,3.63
2022-09-04T12:42:58.414Z,3.67
2022-09-04T12:45:40.678Z,3.17
2022-09-04T12:48:13.424Z,2.70
2022-09-04T12:50:55.824Z,3.20
2022-09-04T12:53:52.765Z,3.10
2022-09-04T12:56:40.828Z,3.30
2022-09-04T12:59:16.182Z,3.30
2022-09-04T13:02:23.852Z,2.90
2022-09-04T13:05:25.788Z,3.13
2022-09-04T13:07:59.455Z,3.07
2022-09-04T13:10:55.445Z,3.17
2022-09-04T13:13:46.650Z,3.27
2022-09-04T13:16:13.227Z,2.80
2022-09-04T13:19:00.112Z,3.40
2022-09-04T13:21:35.344Z,3.40
2022-09-04T13:24:19.481Z,2.67
2022-09-04T13:27:04.557Z,3.20
2022-09-04T13:29:51.403Z,3.40
2022-09-04T13:32:39.708Z,2.90
2022-09-04T13:35:41.286Z,2.40
2022-09-04T13:38:46.393Z,3.00
2022-09-04T13:41:33.061Z,3.77
2022-09-04T13:44:23.749Z,2.73
2022-09-04T13:47:06.967Z,3.03
2022-09-04T13:49:45.724Z,2.73
2022-09-04T13:52:19.266Z,3.00
2022-09-04T13:54:54.831Z,3.10
2022-09-04T13:57:35.342Z,2.97
2022-09-04T14:00:05.671Z,2.93
2022-09-04T14:02:35.486Z,3.30
2022-09-04T14:05:08.169Z,2.60
2022-09-04T14:07:41.540Z,3.10
2022-09-04T14:10:32.604Z,2.93
2022-09-04T14:13:23.223Z,2.80
2022-09-04T14:16:01.728Z,3.30
2022-09-04T14:19:22.769Z,3.23
2022-09-04T14:21:55.217Z,2.70
2022-09-04T14:24:34.833Z,2.83
2022-09-04T14:27:23.177Z,3.07
2022-09-04T14:30:13.074Z,3.23
2022-09-04T14:32:49.323Z,3.20
2022-09-04T14:35:46.787Z,3.00
2022-09-04T14:38:44.517Z,3.37
2022-09-04T14:41:42.887Z,2.93
2022-09-04T14:44:30.593Z,2.83
2022-09-04T14:47:25.987Z,2.60
2022-09-04T14:50:01.120Z,3.53
2022-09-04T14:52:36.618Z,3.07
2022-09-04T14:55:06.928Z,3.07
2022-09-04T14:57:36.293Z,3.50
2022-09-04T15:00:17.277Z,3.47
2022-09-04T15:02:47.568Z,3.90
2022-09-04T15:05:30.775Z,3.50
2022-09-04T15:08:07.488Z,2.90
2022-09-04T15:10:47.437Z,3.20
2022-09-04T15:13:29.109Z,3.03
2022-09-04T15:16:11.119Z,3.00
2022-09-04T15:18:53.527Z,3.07
2022-09-04T15:22:05.449Z,3.40
2022-09-04T15:24:46.613Z,3.53
2022-09-04T15:27:51.249Z,3.70
2022-09-04T15:30:23.816Z,3.27
2022-09-04T15:33:08.909Z,3.67
2022-09-04T15:35:36.311Z,3.70
2022-09-04T15:38:25.278Z,3.47
2022-09-04T15:41:15.491Z,3.27
2022-09-04T15:43:57.774Z,3.47
2022-09-04T15:46:55.326Z,3.30
2022-09-04T15:49:43.859Z,3.10
2022-09-04T15:52:28.624Z,3.87
2022-09-04T15:54:55.177Z,3.27
2022-09-04T15:57:29.501Z,3.37
2022-09-04T16:00:07.957Z,3.13
2022-09-04T16:02:50.181Z,3.50
2022-09-04T16:05:25.058Z,3.60
2022-09-04T16:08:31.720Z,4.53
2022-09-04T16:11:11.563Z,3.87
2022-09-04T16:13:51.127Z,3.57
2022-09-04T16:16:39.349Z,3.47
2022-09-04T16:19:15.078Z,4.10
2022-09-04T16:22:11.384Z,3.97
2022-09-04T16:24:44.256Z,4.23
2022-09-04T16:27:17.436Z,3.90
2022-09-04T16:30:04.887Z,3.80
2022-09-04T16:32:34.055Z,3.50
2022-09-04T16:35:05.605Z,3.70
2022-09-04T16:37:37.345Z,3.93
2022-09-04T16:40:25.388Z,4.10
2022-09-04T16:43:33.926Z,4.27
2022-09-04T16:46:08.152Z,3.70
2022-09-04T16:48:57.771Z,3.90
2022-09-04T16:51:40.086Z,3.47
2022-09-04T16:54:29.000Z,3.47
2022-09-04T16:57:13.694Z,3.90
2022-09-04T17:00:14.123Z,4.20
2022-09-04T17:03:01.396Z,3.43
2022-09-04T17:05:45.639Z,3.73
2022-09-04T17:08:27.891Z,3.30
2022-09-04T17:11:39.495Z,3.73
2022-09-04T17:14:19.801Z,3.13
2022-09-04T17:16:57.340Z,3.30
2022-09-04T17:19:25.517Z,3.40
2022-09-04T17:27:39.176Z,3.23
2022-09-04T17:29:07.715Z,3.33
2022-09-04T17:29:15.426Z,3.13
2022-09-04T17:31:25.797Z,3.37
2022-09-04T17:39:45.959Z,3.37
2022-09-04T17:40:40.031Z,3.50
2022-09-04T17:40:55.964Z,3.13
2022-09-04T17:43:22.141Z,3.37
2022-09-04T17:46:02.537Z,3.77
2022-09-04T17:48:46.925Z,3.70
2022-09-04T17:51:24.701Z,3.30
2022-09-04T17:53:59.882Z,3.97
2022-09-04T17:56:44.352Z,3.40
2022-09-04T18:00:18.960Z,3.80
2022-09-04T18:03:12.372Z,3.37
2022-09-04T18:05:43.506Z,3.63
2022-09-04T18:08:52.574Z,3.50
2022-09-04T18:11:33.909Z,3.23
2022-09-04T18:14:23.000Z,3.60
2022-09-04T18:17:11.812Z,3.70
2022-09-04T18:20:26.105Z,3.83
2022-09-04T18:23:19.479Z,3.70
2022-09-04T18:25:59.161Z,3.83
2022-09-04T18:28:47.364Z,3.80
2022-09-04T18:37:13.097Z,3.70
2022-09-04T18:37:26.905Z,3.47
2022-09-04T18:37:44.679Z,3.90
2022-09-04T18:41:00.775Z,3.80
2022-09-04T18:50:27.930Z,4.23
2022-09-04T18:50:28.382Z,4.37
2022-09-04T18:50:48.705Z,3.90
2022-09-04T18:52:34.452Z,4.40
2022-09-04T18:55:13.439Z,3.83
2022-09-04T18:57:53.297Z,4.00
2022-09-04T19:00:34.034Z,4.50
2022-09-04T19:03:15.795Z,3.77
2022-09-04T19:05:46.652Z,3.90
2022-09-04T19:08:37.360Z,4.00
2022-09-04T19:11:20.643Z,4.27
2022-09-04T19:14:00.737Z,4.60
2022-09-04T19:16:44.498Z,4.27
2022-09-04T19:19:28.672Z,4.70
2022-09-04T19:22:18.505Z,3.83
2022-09-04T19:24:56.839Z,4.60
2022-09-04T19:27:46.836Z,4.40
2022-09-04T19:30:24.952Z,4.80
2022-09-04T19:33:19.381Z,4.50
2022-09-04T19:35:46.491Z,5.37
2022-09-04T19:39:15.481Z,4.90
2022-09-04T19:46:06.659Z,4.90
2022-09-04T19:46:13.320Z,4.77
2022-09-04T19:47:29.436Z,5.60
2022-09-04T19:53:24.134Z,5.70
2022-09-04T19:53:37.787Z,5.67
2022-09-04T19:56:27.571Z,4.53
2022-09-04T19:59:05.551Z,4.70
2022-09-04T20:01:49.520Z,5.37
2022-09-04T20:04:31.920Z,5.00
2022-09-04T20:07:03.135Z,4.60
2022-09-04T20:09:49.612Z,4.87
2022-09-04T20:12:37.148Z,5.23
2022-09-04T20:15:17.559Z,5.30
2022-09-04T20:18:08.449Z,4.93
2022-09-04T20:20:56.116Z,5.63
2022-09-04T20:23:47.629Z,5.57
2022-09-04T20:26:19.987Z,5.93
2022-09-04T20:29:10.553Z,6.27
2022-09-04T20:32:08.829Z,5.43
2022-09-04T20:34:55.336Z,5.57
2022-09-04T20:37:30.400Z,6.30
2022-09-04T20:40:11.725Z,5.87
2022-09-04T20:43:01.801Z,6.83
2022-09-04T20:48:45.658Z,6.40
2022-09-04T20:52:53.682Z,5.13
2022-09-04T20:53:07.405Z,6.23
2022-09-04T20:55:09.867Z,6.77
2022-09-04T21:03:08.713Z,6.30
2022-09-04T21:03:20.358Z,5.90
2022-09-04T21:04:23.749Z,5.83
2022-09-04T21:07:54.541Z,6.07
2022-09-04T21:10:34.428Z,5.67
2022-09-04T21:13:14.025Z,5.97
2022-09-04T21:15:47.090Z,5.50
2022-09-04T21:18:36.534Z,5.20
2022-09-04T21:21:24.737Z,5.03
2022-09-04T21:24:16.108Z,5.23
2022-09-04T21:26:58.859Z,5.23
2022-09-04T21:29:40.786Z,5.50
2022-09-04T21:32:14.925Z,6.20
2022-09-04T21:34:56.338Z,5.20
2022-09-04T21:37:50.035Z,5.50
2022-09-04T21:40:54.369Z,4.40
2022-09-04T21:43:52.355Z,5.00
2022-09-04T21:46:43.053Z,4.63
2022-09-04T21:49:28.425Z,4.80
2022-09-04T21:52:09.720Z,4.40
2022-09-04T21:57:05.502Z,5.20
2022-09-04T22:02:35.218Z,5.13
2022-09-04T22:02:44.438Z,4.90
2022-09-04T22:04:05.293Z,5.30
2022-09-04T22:08:02.420Z,6.07
2022-09-04T22:13:32.944Z,5.50
2022-09-04T22:13:50.299Z,5.27
2022-09-04T22:16:45.125Z,5.50
2022-09-04T22:19:17.032Z,5.73
2022-09-04T22:22:03.655Z,5.20
2022-09-04T22:24:57.509Z,5.70
2022-09-04T22:28:08.294Z,4.73
2022-09-04T22:31:08.805Z,5.10
2022-09-04T22:34:15.986Z,5.63
2022-09-04T22:37:21.409Z,5.10
2022-09-04T22:40:16.071Z,5.30
2022-09-04T22:42:59.681Z,4.50
2022-09-04T22:45:55.141Z,5.33
2022-09-04T22:48:30.221Z,4.93
2022-09-04T22:51:17.484Z,5.07
2022-09-04T22:54:04.606Z,5.33
2022-09-04T22:56:51.267Z,5.17
2022-09-04T22:59:36.385Z,5.40
2022-09-04T23:05:44.705Z,5.00
2022-09-04T23:12:59.954Z,4.90
2022-09-04T23:13:51.732Z,5.23
2022-09-04T23:14:46.071Z,5.10
2022-09-04T23:17:52.922Z,5.40
2022-09-04T23:26:35.671Z,5.00
2022-09-04T23:26:47.563Z,4.77
2022-09-04T23:27:34.003Z,5.80
2022-09-04T23:30:53.150Z,5.10
2022-09-04T23:33:42.010Z,5.00
2022-09-04T23:36:43.920Z,5.73
2022-09-04T23:39:53.046Z,4.80
2022-09-04T23:42:25.796Z,5.17
2022-09-04T23:45:13.462Z,5.30
2022-09-04T23:48:01.069Z,5.33
2022-09-04T23:51:01.369Z,5.20
2022-09-04T23:53:46.200Z,4.93
2022-09-04T23:56:25.692Z,5.27
2022-09-04T23:59:21.169Z,4.90
